Data for 03/30/2013

Time Sea-Level Adjusted Pressure Absolute Pressure Temperature Relative Humidity Dew Point   
(mb) (inHg) (mb) (inHg) (C) (F) (%) (C) (F)
00:05 1023 30.21 852 25.16 4.8 40.6 80 1.6 34.9
00:10 1023 30.21 852 25.16 4.7 40.5 79 1.5 34.7
00:15 1023 30.21 852 25.16 4.8 40.6 81 1.7 35.1
00:20 1023 30.21 852 25.16 4.8 40.6 82 1.9 35.5
00:25 1023 30.21 852 25.16 4.5 40.2 81 1.5 34.7
00:30 1023 30.21 852 25.16 4.1 39.4 82 1.4 34.4
00:35 1023 30.21 852 25.16 4.1 39.4 81 1.1 34
00:40 1023 30.21 852 25.16 4.1 39.4 79 0.9 33.6
00:45 1023 30.21 852 25.16 4.1 39.4 80 1 33.7
00:50 1023 30.21 852 25.16 4.1 39.3 81 1.1 33.9
00:55 1023 30.21 852 25.16 4.1 39.4 83 1.4 34.6
01:00 1023 30.21 852 25.16 4.1 39.4 83 1.4 34.5
01:05 1023 30.21 852 25.16 4.1 39.3 83 1.4 34.6
01:10 1023 30.21 852 25.16 4.1 39.4 82 1.3 34.3
01:15 1023 30.21 852 25.16 4.1 39.4 82 1.3 34.3
01:20 1023 30.21 852 25.16 4 39.2 83 1.4 34.5
01:25 1023 30.21 852 25.16 3.9 39 83 1.3 34.4
01:30 1023 30.21 852 25.16 3.8 38.9 83 1.2 34.1
01:35 1023 30.21 852 25.16 3.7 38.7 84 1.3 34.3
01:40 1023 30.21 852 25.16 3.6 38.5 84 1.2 34.2
01:45 1023 30.21 852 25.16 3.6 38.5 84 1.1 34
01:50 1023 30.21 852 25.16 3.7 38.7 82 1 33.7
01:55 1023 30.21 852 25.16 3.7 38.6 83 1 33.8
02:00 1023 30.21 852 25.16 3.6 38.5 84 1.1 34
02:05 1023 30.21 852 25.16 3.6 38.5 83 1 33.8
02:10 1023 30.21 852 25.16 3.8 38.8 82 1 33.9
02:15 1023 30.21 852 25.16 3.9 39.1 81 1.1 33.9
02:20 1023 30.21 852 25.16 3.8 38.9 81 0.9 33.6
02:25 1023 30.21 852 25.16 3.8 38.9 81 0.9 33.5
02:30 1023 30.21 852 25.16 3.9 39.1 80 0.8 33.4
02:35 1023 30.21 852 25.16 4 39.2 80 0.9 33.5
02:40 1023 30.21 852 25.16 3.9 39.1 81 1 33.7
02:45 1023 30.21 852 25.16 3.9 39 81 0.9 33.7
02:50 1023 30.21 852 25.16 3.9 39.1 77 0.3 32.6
02:55 1023 30.21 852 25.16 4.2 39.5 78 0.6 33.1
03:00 1023 30.21 852 25.16 4 39.3 78 0.6 33.1
03:05 1023 30.21 852 25.16 4 39.3 78 0.6 33
03:10 1023 30.21 852 25.16 4.1 39.3 78 0.6 33
03:15 1023 30.21 852 25.16 4 39.3 79 0.7 33.3
03:20 1023 30.21 852 25.16 3.8 38.8 81 0.8 33.4
03:25 1023 30.21 852 25.16 3.6 38.5 82 0.7 33.3
03:30 1023 30.21 852 25.16 3.6 38.5 82 0.7 33.3
03:35 1023 30.21 852 25.16 3.5 38.3 83 0.8 33.5
03:40 1023 30.21 852 25.16 3.2 37.8 85 1 33.8
03:45 1023 30.21 852 25.16 2.8 37.1 87 0.8 33.4
03:50 1023 30.21 852 25.16 2.9 37.1 85 0.7 33.2
03:55 1023 30.21 852 25.16 3.2 37.7 81 0.2 32.4
04:00 1023 30.21 852 25.16 3.6 38.5 78 0.1 32.2
04:05 1023 30.21 852 25.16 3.8 38.8 78 0.3 32.5
04:10 1023 30.21 852 25.16 3.7 38.7 79 0.4 32.7
04:15 1023 30.21 852 25.16 3.5 38.3 79 0.2 32.4
04:20 1023 30.21 852 25.16 3.5 38.2 77 -0.1 31.8
04:25 1023 30.21 852 25.16 3.6 38.6 77 -0.1 31.9
04:30 1023 30.21 852 25.16 3.7 38.7 76 -0.2 31.7
04:35 1023 30.21 852 25.16 3.8 38.9 75 -0.2 31.6
04:40 1023 30.21 852 25.16 3.9 39 75 -0.2 31.6
04:45 1023 30.21 852 25.16 4 39.1 74 -0.3 31.5
04:50 1023 30.21 852 25.16 4 39.1 74 -0.3 31.4
04:55 1023 30.21 852 25.16 4 39.2 73 -0.4 31.3
05:00 1023 30.21 852 25.16 4 39.2 73 -0.4 31.4
05:05 1023 30.21 852 25.16 4 39.2 73 -0.3 31.4
05:10 1023 30.21 852 25.16 3.9 39 74 -0.4 31.3
05:15 1023 30.21 852 25.16 3.8 38.9 74 -0.3 31.4
05:20 1023 30.21 852 25.16 3.7 38.7 75 -0.3 31.4
05:25 1023 30.21 852 25.16 3.7 38.6 75 -0.4 31.3
05:30 1023 30.21 852 25.16 3.5 38.4 76 -0.4 31.3
05:35 1023 30.21 852 25.16 3.4 38.1 77 -0.3 31.5
05:40 1023 30.21 852 25.16 3.2 37.8 78 -0.3 31.5
05:45 1023 30.21 852 25.16 3.1 37.5 80 -0.1 31.8
05:50 1023 30.21 853 25.19 2.9 37.2 80 -0.2 31.6
05:55 1023 30.21 853 25.19 2.8 37.1 80 -0.2 31.6
06:00 1023 30.21 853 25.19 2.8 37.1 80 -0.3 31.5
06:05 1023 30.21 853 25.19 2.7 36.9 80 -0.4 31.3
06:10 1023 30.21 853 25.19 2.6 36.6 80 -0.5 31
06:15 1024 30.24 853 25.19 2.5 36.6 80 -0.6 31
06:20 1024 30.24 853 25.19 2.5 36.6 80 -0.6 30.8
06:25 1024 30.24 853 25.19 2.6 36.6 79 -0.7 30.7
06:30 1024 30.24 853 25.19 2.7 36.8 78 -0.7 30.7
06:35 1024 30.24 853 25.19 2.7 36.9 78 -0.7 30.7
06:40 1024 30.24 853 25.19 2.8 37 78 -0.8 30.6
06:45 1024 30.24 853 25.19 2.9 37.2 77 -0.7 30.7
06:50 1024 30.24 853 25.19 3.1 37.5 76 -0.7 30.7
06:55 1024 30.24 853 25.19 3.2 37.7 76 -0.7 30.7
07:00 1024 30.24 853 25.19 3.2 37.8 76 -0.7 30.8
07:05 1024 30.24 853 25.19 3.2 37.8 75 -0.7 30.8
07:10 1024 30.24 853 25.19 3.2 37.7 76 -0.7 30.7
07:15 1024 30.24 853 25.19 3.2 37.8 75 -0.8 30.6
07:20 1024 30.24 853 25.19 3.3 37.9 74 -1 30.3
07:25 1024 30.24 853 25.19 3.5 38.3 72 -1 30.2
07:30 1024 30.24 853 25.19 3.7 38.6 73 -0.7 30.7
07:35 1024 30.24 853 25.19 3.7 38.6 74 -0.6 31
07:40 1024 30.24 853 25.19 3.5 38.4 76 -0.3 31.4
07:45 1024 30.24 853 25.19 3.5 38.3 75 -0.5 31.2
07:50 1024 30.24 853 25.19 3.6 38.5 76 -0.2 31.7
07:55 1024 30.24 853 25.19 3.7 38.6 76 -0.2 31.6
08:00 1024 30.24 853 25.19 4 39.2 72 -0.5 31.1
08:05 1024 30.24 853 25.19 4.3 39.8 72 -0.2 31.6
08:10 1024 30.24 853 25.19 4.4 40 71 -0.3 31.5
08:15 1024 30.24 853 25.19 4.8 40.6 67 -0.9 30.4
08:20 1024 30.24 853 25.19 5.1 41.1 67 -0.5 31.1
08:25 1024 30.24 853 25.19 5.3 41.5 67 -0.3 31.5
08:30 1024 30.24 853 25.19 5.9 42.6 65 -0.2 31.6
08:35 1024 30.24 853 25.19 6 42.8 60 -1.1 30
08:40 1024 30.24 853 25.19 6.1 43 57 -1.8 28.8
08:45 1024 30.24 853 25.19 6.2 43.1 59 -1.3 29.7
08:50 1024 30.24 853 25.19 6.4 43.6 55 -1.9 28.6
08:55 1024 30.24 853 25.19 6.6 43.9 55 -1.7 29
09:00 1024 30.24 853 25.19 6.8 44.2 55 -1.7 29
09:05 1024 30.24 853 25.19 6.8 44.3 54 -1.7 28.9
09:10 1024 30.24 853 25.19 6.8 44.3 50 -2.9 26.7
09:15 1024 30.24 854 25.22 7.1 44.8 49 -3 26.7
09:20 1024 30.24 854 25.22 7.5 45.6 48 -2.7 27.1
09:25 1024 30.24 854 25.22 8 46.4 47 -2.7 27.2
09:30 1024 30.24 854 25.22 8.1 46.5 47 -2.5 27.5
09:35 1024 30.24 854 25.22 8.3 46.9 48 -2.2 28
09:40 1024 30.24 854 25.22 7.9 46.2 51 -1.6 29
09:45 1024 30.24 854 25.22 7.5 45.4 52 -1.6 29.1
09:50 1024 30.24 854 25.22 7.9 46.2 49 -2 28.3
09:55 1024 30.24 854 25.22 8.6 47.5 48 -1.8 28.8
10:00 1024 30.24 854 25.22 8.7 47.6 48 -1.7 28.9
10:05 1024 30.24 854 25.22 9.1 48.4 47 -1.6 29.1
10:10 1025 30.27 854 25.22 9.1 48.4 45 -2 28.3
10:15 1025 30.27 854 25.22 8.4 47 47 -2.2 28
10:20 1025 30.27 854 25.22 8.3 46.9 49 -1.8 28.7
10:25 1025 30.27 854 25.22 7.9 46.2 42 -4.2 24.5
10:30 1025 30.27 854 25.22 7.6 45.7 42 -4.6 23.6
10:35 1025 30.27 854 25.22 8.2 46.7 43 -3.7 25.3
10:40 1025 30.27 854 25.22 8.2 46.8 39 -5 23
10:45 1025 30.27 854 25.22 8.7 47.6 38 -4.7 23.5
10:50 1025 30.27 854 25.22 8.8 47.8 40 -4.1 24.6
10:55 1025 30.27 854 25.22 8.5 47.2 42 -3.8 25.1
11:00 1025 30.27 854 25.22 8.5 47.3 39 -4.5 23.9
11:05 1025 30.27 854 25.22 8.5 47.3 43 -3.5 25.7
11:10 1025 30.27 854 25.22 8.8 47.8 40 -4.2 24.5
11:15 1025 30.27 854 25.22 9.2 48.5 40 -3.7 25.3
11:20 1025 30.27 854 25.22 9 48.2 40 -3.8 25.2
11:25 1025 30.27 854 25.22 8.9 48.1 37 -5.1 22.9
11:30 1025 30.27 854 25.22 9.2 48.5 36 -5.1 22.8
11:35 1025 30.27 854 25.22 9.7 49.5 35 -4.8 23.4
11:40 1025 30.27 854 25.22 9.4 48.9 37 -4.6 23.7
11:45 1025 30.27 854 25.22 9.1 48.4 36 -5.1 22.9
11:50 1025 30.27 854 25.22 8.7 47.6 38 -5 23
11:55 1025 30.27 854 25.22 8.7 47.6 38 -5 23
12:00 1025 30.27 854 25.22 9.1 48.3 35 -5.5 22.1
12:05 1024 30.24 854 25.22 10 50 33 -5.7 21.8
12:10 1024 30.24 854 25.22 10.7 51.2 32 -5.5 22.1
12:15 1024 30.24 854 25.22 11.3 52.4 31 -5.2 22.7
12:20 1024 30.24 854 25.22 11.6 52.9 29 -5.8 21.5
12:25 1024 30.24 853 25.19 12.3 54.1 27 -6.3 20.7
12:30 1024 30.24 853 25.19 12.4 54.2 28 -5.7 21.7
12:35 1024 30.24 853 25.19 11.7 53 28 -6.3 20.7
12:40 1024 30.24 853 25.19 12 53.6 25 -7.3 18.9
12:45 1024 30.24 853 25.19 11.5 52.7 30 -5.4 22.2
12:50 1024 30.24 853 25.19 10.9 51.5 32 -5 23.1
12:55 1024 30.24 853 25.19 9.5 49.1 33 -5.8 21.6
13:00 1024 30.24 853 25.19 9.7 49.4 31 -6.8 19.8
13:05 1024 30.24 853 25.19 10.5 51 29 -6.6 20.2
13:10 1024 30.24 853 25.19 11.7 53 27 -6.5 20.3
13:15 1024 30.24 853 25.19 11.8 53.3 26 -6.8 19.7
13:20 1024 30.24 853 25.19 11.6 52.8 28 -6.4 20.4
13:25 1024 30.24 853 25.19 11.2 52.1 28 -6.6 20.2
13:30 1024 30.24 853 25.19 11.5 52.8 27 -6.9 19.7
13:35 1024 30.24 853 25.19 12.2 54 27 -6.3 20.7
13:40 1024 30.24 853 25.19 12 53.7 27 -6.4 20.5
13:45 1024 30.24 853 25.19 11.7 53.1 28 -6.3 20.7
13:50 1024 30.24 853 25.19 11.2 52.2 29 -6.2 20.8
13:55 1024 30.24 853 25.19 11.5 52.6 26 -7.4 18.7
14:00 1024 30.24 853 25.19 12.2 53.9 25 -7.1 19.3
14:05 1024 30.24 853 25.19 12.6 54.7 25 -6.7 20
14:10 1024 30.24 853 25.19 11.9 53.4 28 -6.2 20.8
14:15 1024 30.24 853 25.19 11.2 52.2 27 -6.9 19.6
14:20 1024 30.24 853 25.19 11.8 53.2 26 -6.9 19.6
14:25 1024 30.24 853 25.19 12.6 54.7 26 -6.6 20.2
14:30 1024 30.24 853 25.19 12.5 54.4 25 -6.8 19.8
14:35 1023 30.21 853 25.19 12.6 54.7 25 -6.7 19.9
14:40 1023 30.21 853 25.19 12.3 54.1 26 -6.6 20.2
14:45 1023 30.21 853 25.19 12.4 54.2 25 -6.8 19.7
14:50 1023 30.21 853 25.19 12.5 54.6 24 -7.2 19
14:55 1023 30.21 853 25.19 12.7 54.9 25 -6.8 19.8
15:00 1023 30.21 852 25.16 12.8 55.1 24 -7.3 18.8
15:05 1023 30.21 852 25.16 12.8 55.1 24 -7.1 19.3
15:10 1023 30.21 852 25.16 12.5 54.5 25 -7.1 19.3
15:15 1023 30.21 852 25.16 13 55.4 24 -7.3 18.8
15:20 1023 30.21 852 25.16 12.9 55.3 23 -7.5 18.5
15:25 1023 30.21 852 25.16 12.7 54.8 24 -7.1 19.2
15:30 1023 30.21 852 25.16 12.3 54.2 24 -7.4 18.7
15:35 1023 30.21 852 25.16 11.9 53.3 25 -7.5 18.6
15:40 1023 30.21 852 25.16 12.7 54.8 24 -7.5 18.5
15:45 1023 30.21 852 25.16 13 55.4 24 -7.3 18.9
15:50 1023 30.21 852 25.16 13.1 55.6 24 -7.2 19.1
15:55 1023 30.21 852 25.16 12.7 54.9 23 -7.9 17.7
16:00 1023 30.21 852 25.16 12.7 54.8 23 -7.8 17.9
16:05 1023 30.21 852 25.16 12.7 54.8 24 -7.3 18.9
16:10 1023 30.21 852 25.16 12.2 54 24 -7.8 18
16:15 1022 30.18 852 25.16 11.7 53.1 24 -7.9 17.7
16:20 1022 30.18 852 25.16 12.5 54.6 23 -8 17.6
16:25 1022 30.18 852 25.16 12.8 55 24 -7.3 18.9
16:30 1022 30.18 852 25.16 12.5 54.4 23 -7.9 17.7
16:35 1022 30.18 852 25.16 13.2 55.8 22 -8.3 17.1
16:40 1022 30.18 852 25.16 12.9 55.3 23 -7.8 17.9
16:45 1022 30.18 851 25.13 12.7 54.9 23 -7.7 18.1
16:50 1022 30.18 851 25.13 12.9 55.2 22 -8.2 17.2
16:55 1022 30.18 851 25.13 12.9 55.1 23 -7.7 18.1
17:00 1022 30.18 851 25.13 13 55.5 22 -8 17.7
17:05 1022 30.18 851 25.13 13.3 56 22 -8 17.6
17:10 1022 30.18 851 25.13 13.1 55.5 22 -8.2 17.3
17:15 1022 30.18 851 25.13 13 55.4 22 -8 17.6
17:20 1022 30.18 851 25.13 12.8 55 22 -8.4 16.9
17:25 1022 30.18 851 25.13 12.5 54.5 23 -8 17.6
17:30 1022 30.18 851 25.13 12.2 53.9 24 -7.9 17.8
17:35 1022 30.18 851 25.13 12.1 53.9 23 -8.1 17.4
17:40 1022 30.18 851 25.13 11.9 53.4 24 -7.8 17.9
17:45 1022 30.18 851 25.13 11.8 53.2 24 -7.9 17.7
17:50 1022 30.18 851 25.13 11.7 53.1 25 -7.8 17.9
17:55 1022 30.18 851 25.13 11.8 53.2 25 -7.8 17.9
18:00 1022 30.18 851 25.13 11.8 53.2 24 -8.1 17.4
18:05 1022 30.18 851 25.13 11.7 53 25 -7.8 18
18:10 1022 30.18 851 25.13 11.5 52.7 25 -8 17.7
18:15 1022 30.18 851 25.13 11.4 52.5 25 -7.8 18
18:20 1022 30.18 851 25.13 11.3 52.3 25 -7.8 17.9
18:25 1022 30.18 851 25.13 11.2 52.2 26 -7.7 18.2
18:30 1021 30.15 851 25.13 11.2 52.1 26 -7.5 18.5
18:35 1021 30.15 851 25.13 11.1 51.9 26 -7.7 18.1
18:40 1021 30.15 851 25.13 10.9 51.6 26 -7.7 18.2
18:45 1021 30.15 851 25.13 10.8 51.5 26 -7.7 18.1
18:50 1021 30.15 850 25.1 10.8 51.4 27 -7.3 18.9
18:55 1021 30.15 850 25.1 10.6 51 30 -6.4 20.5
19:00 1021 30.15 850 25.1 10.1 50.3 30 -6.6 20.1
19:05 1021 30.15 850 25.1 9.8 49.7 34 -5.4 22.3
19:10 1021 30.15 850 25.1 8.7 47.7 38 -4.8 23.3
19:15 1021 30.15 850 25.1 8.1 46.6 40 -4.7 23.5
19:20 1021 30.15 850 25.1 7.7 45.9 42 -4.3 24.2
19:25 1021 30.15 850 25.1 7.3 45.1 44 -4.2 24.5
19:30 1021 30.15 850 25.1 7 44.6 45 -4.1 24.7
19:35 1021 30.15 850 25.1 6.8 44.3 46 -3.9 24.9
19:40 1021 30.15 850 25.1 6.6 43.9 47 -3.8 25.2
19:45 1021 30.15 850 25.1 6.3 43.4 49 -3.6 25.5
19:50 1021 30.15 850 25.1 6.1 43 50 -3.5 25.6
19:55 1021 30.15 850 25.1 5.9 42.7 51 -3.6 25.6
20:00 1021 30.15 850 25.1 5.8 42.5 51 -3.5 25.8
20:05 1021 30.15 850 25.1 5.7 42.2 52 -3.5 25.7
20:10 1021 30.15 850 25.1 5.6 42.1 51 -3.8 25.1
20:15 1021 30.15 850 25.1 5.5 41.9 52 -3.6 25.5
20:20 1021 30.15 850 25.1 5.5 41.8 52 -3.5 25.6
20:25 1021 30.15 850 25.1 5.4 41.7 53 -3.5 25.7
20:30 1021 30.15 850 25.1 5.3 41.6 53 -3.6 25.5
20:35 1021 30.15 850 25.1 5.2 41.4 52 -3.8 25.1
20:40 1021 30.15 850 25.1 5.2 41.4 53 -3.6 25.5
20:45 1021 30.15 850 25.1 5.1 41.2 54 -3.5 25.7
20:50 1021 30.15 850 25.1 5 40.9 54 -3.5 25.8
20:55 1021 30.15 850 25.1 4.9 40.8 54 -3.5 25.6
21:00 1021 30.15 850 25.1 4.9 40.7 54 -3.6 25.6
21:05 1021 30.15 850 25.1 4.9 40.9 53 -3.9 24.9
21:10 1021 30.15 850 25.1 5.1 41.1 53 -3.8 25.1
21:15 1021 30.15 850 25.1 5 40.9 53 -3.9 25
21:20 1021 30.15 850 25.1 5 41 53 -3.9 25
21:25 1021 30.15 850 25.1 4.9 40.9 52 -4 24.7
21:30 1021 30.15 850 25.1 5 41.1 51 -4.2 24.5
21:35 1021 30.15 850 25.1 5 41 52 -4.1 24.6
21:40 1021 30.15 850 25.1 5 41 51 -4.3 24.3
21:45 1021 30.15 850 25.1 5.1 41.2 51 -4.3 24.3
21:50 1021 30.15 850 25.1 5.1 41.2 52 -4 24.9
21:55 1021 30.15 850 25.1 5.2 41.3 51 -4.2 24.5
22:00 1021 30.15 850 25.1 5 41.1 51 -4.2 24.4
22:05 1021 30.15 850 25.1 4.9 40.9 51 -4.4 24
22:10 1020 30.12 850 25.1 4.9 40.8 51 -4.4 24.1
22:15 1020 30.12 850 25.1 4.8 40.7 51 -4.4 24
22:20 1020 30.12 850 25.1 4.7 40.5 52 -4.3 24.2
22:25 1020 30.12 849 25.07 4.5 40.1 53 -4.2 24.5
22:30 1020 30.12 849 25.07 4.2 39.6 55 -4.1 24.7
22:35 1020 30.12 849 25.07 3.9 39 56 -4.1 24.7
22:40 1020 30.12 849 25.07 3.7 38.7 57 -4.1 24.7
22:45 1020 30.12 849 25.07 3.7 38.7 55 -4.5 23.9
22:50 1020 30.12 849 25.07 3.9 39 55 -4.4 24.1
22:55 1020 30.12 849 25.07 3.9 39.1 54 -4.5 23.9
23:00 1020 30.12 849 25.07 4 39.2 53 -4.7 23.5
23:05 1020 30.12 849 25.07 4.1 39.5 52 -4.8 23.3
23:10 1020 30.12 849 25.07 4 39.1 51 -5.1 22.8
23:15 1020 30.12 849 25.07 4.3 39.8 50 -5.2 22.7
23:20 1020 30.12 849 25.07 4.7 40.5 48 -5.3 22.5
23:25 1020 30.12 849 25.07 4.6 40.3 53 -4.2 24.5
23:30 1020 30.12 849 25.07 3.7 38.6 50 -5.7 21.8
23:35 1020 30.12 849 25.07 3.9 39.1 50 -5.5 22.2
23:40 1020 30.12 849 25.07 4.2 39.6 49 -5.5 22.2
23:45 1020 30.12 849 25.07 4.4 39.9 49 -5.4 22.3
23:50 1020 30.12 849 25.07 4.6 40.2 48 -5.4 22.3
23:55 1020 30.12 849 25.07 4.8 40.7 47 -5.5 22
24:00 1020 30.12 849 25.07 4.9 40.7 48 -5.2 22.7